Anderson, South Carolina
Current Conditions -  °F | °C
As of 3:56 PM on Friday 19 Dec 2014 (Local Time) from KAND Reporting Station
Clear Clear  
Wind Chill: 56°   Ceiling: Unl
Heat Index: 56°   Visibility: 10mi
Dew Point: 33°   Wind: 0mph
Humidity: 42%   Direction: NA
Pressure: 30.1"   Gusts: NA
Location:  34.5°N, 82.65°W
Report Text: KAND 192056Z AUTO 00000KT 10SM CLR 13/01 A3010 RMK AO2 SLP192 T01330006 56009
Loading
Personal Weather Stations






























Interactive Weather Map New forecast layout! Learn more

10-Day Weather Forecast

Advertisements
Track Severe Weather on mobile